sensor_id;sensor_type;location;lat;lon;timestamp;P1;durP1;ratioP1;P2;durP2;ratioP2
3309;SDS011;1667;53.238;10.394;2022-11-02T00:00:28;4.43;;;1.67;;
3309;SDS011;1667;53.238;10.394;2022-11-02T00:05:27;6.33;;;1.80;;
3309;SDS011;1667;53.238;10.394;2022-11-02T00:10:26;4.37;;;1.73;;
3309;SDS011;1667;53.238;10.394;2022-11-02T00:15:25;6.50;;;2.13;;
3309;SDS011;1667;53.238;10.394;2022-11-02T00:20:27;3.50;;;1.27;;
3309;SDS011;1667;53.238;10.394;2022-11-02T00:25:26;6.20;;;1.43;;
3309;SDS011;1667;53.238;10.394;2022-11-02T00:30:24;3.17;;;1.50;;
3309;SDS011;1667;53.238;10.394;2022-11-02T00:35:24;4.67;;;1.57;;
3309;SDS011;1667;53.238;10.394;2022-11-02T00:40:22;5.43;;;2.60;;
3309;SDS011;1667;53.238;10.394;2022-11-02T00:45:21;7.40;;;1.67;;
3309;SDS011;1667;53.238;10.394;2022-11-02T00:50:19;5.33;;;1.50;;
3309;SDS011;1667;53.238;10.394;2022-11-02T00:55:19;5.70;;;1.73;;
3309;SDS011;1667;53.238;10.394;2022-11-02T01:00:18;3.47;;;1.37;;
3309;SDS011;1667;53.238;10.394;2022-11-02T01:05:16;5.60;;;2.20;;
3309;SDS011;1667;53.238;10.394;2022-11-02T01:10:16;2.83;;;1.00;;
3309;SDS011;1667;53.238;10.394;2022-11-02T01:15:16;2.30;;;1.40;;
3309;SDS011;1667;53.238;10.394;2022-11-02T01:20:15;3.90;;;1.50;;
3309;SDS011;1667;53.238;10.394;2022-11-02T01:25:13;5.70;;;1.43;;
3309;SDS011;1667;53.238;10.394;2022-11-02T01:30:11;9.80;;;1.70;;
3309;SDS011;1667;53.238;10.394;2022-11-02T01:35:13;1.20;;;1.10;;
3309;SDS011;1667;53.238;10.394;2022-11-02T01:40:12;2.60;;;1.73;;
3309;SDS011;1667;53.238;10.394;2022-11-02T01:45:10;2.23;;;1.50;;
3309;SDS011;1667;53.238;10.394;2022-11-02T01:50:12;4.40;;;1.70;;
3309;SDS011;1667;53.238;10.394;2022-11-02T01:55:15;3.40;;;1.23;;
3309;SDS011;1667;53.238;10.394;2022-11-02T02:00:16;2.90;;;1.20;;
3309;SDS011;1667;53.238;10.394;2022-11-02T02:05:16;4.57;;;1.60;;
3309;SDS011;1667;53.238;10.394;2022-11-02T02:10:15;6.63;;;2.90;;
3309;SDS011;1667;53.238;10.394;2022-11-02T02:15:14;3.40;;;1.50;;
3309;SDS011;1667;53.238;10.394;2022-11-02T02:20:16;5.03;;;1.60;;
3309;SDS011;1667;53.238;10.394;2022-11-02T02:25:25;5.07;;;1.60;;
3309;SDS011;1667;53.238;10.394;2022-11-02T02:30:47;2.50;;;1.50;;
3309;SDS011;1667;53.238;10.394;2022-11-02T02:35:51;6.40;;;1.50;;
3309;SDS011;1667;53.238;10.394;2022-11-02T02:46:45;6.43;;;1.97;;
3309;SDS011;1667;53.238;10.394;2022-11-02T02:51:51;4.63;;;1.57;;
3309;SDS011;1667;53.238;10.394;2022-11-02T02:56:54;4.80;;;1.77;;
3309;SDS011;1667;53.238;10.394;2022-11-02T03:01:56;5.43;;;2.00;;
3309;SDS011;1667;53.238;10.394;2022-11-02T03:06:55;7.10;;;1.80;;
3309;SDS011;1667;53.238;10.394;2022-11-02T03:11:59;2.40;;;1.33;;
3309;SDS011;1667;53.238;10.394;2022-11-02T03:17:11;5.70;;;1.30;;
3309;SDS011;1667;53.238;10.394;2022-11-02T03:22:18;7.23;;;2.10;;
3309;SDS011;1667;53.238;10.394;2022-11-02T03:27:21;5.00;;;1.30;;
3309;SDS011;1667;53.238;10.394;2022-11-02T03:32:32;6.90;;;1.60;;
3309;SDS011;1667;53.238;10.394;2022-11-02T03:37:36;12.17;;;1.70;;
3309;SDS011;1667;53.238;10.394;2022-11-02T03:42:38;4.50;;;2.10;;
3309;SDS011;1667;53.238;10.394;2022-11-02T03:47:40;2.23;;;1.20;;
3309;SDS011;1667;53.238;10.394;2022-11-02T03:52:42;5.97;;;1.50;;
3309;SDS011;1667;53.238;10.394;2022-11-02T03:57:43;1.87;;;1.50;;
3309;SDS011;1667;53.238;10.394;2022-11-02T04:02:49;5.13;;;1.70;;
3309;SDS011;1667;53.238;10.394;2022-11-02T04:07:51;3.00;;;1.37;;
3309;SDS011;1667;53.238;10.394;2022-11-02T04:13:09;6.10;;;1.90;;
3309;SDS011;1667;53.238;10.394;2022-11-02T04:18:27;5.30;;;1.70;;
3309;SDS011;1667;53.238;10.394;2022-11-02T04:23:42;8.60;;;1.90;;
3309;SDS011;1667;53.238;10.394;2022-11-02T04:28:58;4.97;;;1.73;;
3309;SDS011;1667;53.238;10.394;2022-11-02T04:33:59;6.37;;;1.50;;
3309;SDS011;1667;53.238;10.394;2022-11-02T04:38:58;7.10;;;1.23;;
3309;SDS011;1667;53.238;10.394;2022-11-02T04:43:58;2.97;;;1.50;;
3309;SDS011;1667;53.238;10.394;2022-11-02T04:48:59;8.67;;;1.57;;
3309;SDS011;1667;53.238;10.394;2022-11-02T04:53:59;5.73;;;1.83;;
3309;SDS011;1667;53.238;10.394;2022-11-02T04:58:58;4.90;;;1.60;;
3309;SDS011;1667;53.238;10.394;2022-11-02T05:04:01;5.23;;;1.30;;
3309;SDS011;1667;53.238;10.394;2022-11-02T05:09:02;8.53;;;1.53;;
3309;SDS011;1667;53.238;10.394;2022-11-02T05:14:01;1.83;;;1.27;;
3309;SDS011;1667;53.238;10.394;2022-11-02T05:19:01;5.27;;;1.50;;
3309;SDS011;1667;53.238;10.394;2022-11-02T05:24:07;6.07;;;1.57;;
3309;SDS011;1667;53.238;10.394;2022-11-02T05:29:05;3.60;;;1.43;;
3309;SDS011;1667;53.238;10.394;2022-11-02T05:34:06;7.27;;;1.67;;
3309;SDS011;1667;53.238;10.394;2022-11-02T05:39:05;6.73;;;1.80;;
3309;SDS011;1667;53.238;10.394;2022-11-02T05:44:03;6.23;;;1.87;;
3309;SDS011;1667;53.238;10.394;2022-11-02T05:49:06;3.90;;;1.40;;
3309;SDS011;1667;53.238;10.394;2022-11-02T05:54:04;4.40;;;1.30;;
3309;SDS011;1667;53.238;10.394;2022-11-02T05:59:02;3.97;;;1.27;;
3309;SDS011;1667;53.238;10.394;2022-11-02T06:04:01;7.13;;;1.43;;
3309;SDS011;1667;53.238;10.394;2022-11-02T06:09:01;4.60;;;1.60;;
3309;SDS011;1667;53.238;10.394;2022-11-02T06:14:02;1.77;;;1.47;;
3309;SDS011;1667;53.238;10.394;2022-11-02T06:19:01;5.77;;;1.90;;
3309;SDS011;1667;53.238;10.394;2022-11-02T06:24:00;1.57;;;1.03;;
3309;SDS011;1667;53.238;10.394;2022-11-02T06:28:59;5.90;;;1.73;;
3309;SDS011;1667;53.238;10.394;2022-11-02T06:33:57;7.60;;;1.50;;
3309;SDS011;1667;53.238;10.394;2022-11-02T06:38:55;5.97;;;2.83;;
3309;SDS011;1667;53.238;10.394;2022-11-02T06:43:55;9.10;;;1.37;;
3309;SDS011;1667;53.238;10.394;2022-11-02T06:48:53;5.97;;;1.67;;
3309;SDS011;1667;53.238;10.394;2022-11-02T06:53:51;1.73;;;1.27;;
3309;SDS011;1667;53.238;10.394;2022-11-02T06:58:49;4.63;;;1.67;;
3309;SDS011;1667;53.238;10.394;2022-11-02T07:03:49;4.80;;;1.30;;
3309;SDS011;1667;53.238;10.394;2022-11-02T07:08:47;6.53;;;1.43;;
3309;SDS011;1667;53.238;10.394;2022-11-02T07:13:45;3.57;;;1.27;;
3309;SDS011;1667;53.238;10.394;2022-11-02T07:18:44;7.20;;;1.50;;
3309;SDS011;1667;53.238;10.394;2022-11-02T07:23:43;2.57;;;1.20;;
3309;SDS011;1667;53.238;10.394;2022-11-02T07:28:43;3.47;;;1.50;;
3309;SDS011;1667;53.238;10.394;2022-11-02T07:33:42;5.30;;;1.80;;
3309;SDS011;1667;53.238;10.394;2022-11-02T07:38:40;2.30;;;1.60;;
3309;SDS011;1667;53.238;10.394;2022-11-02T07:43:40;3.10;;;1.73;;
3309;SDS011;1667;53.238;10.394;2022-11-02T07:49:02;5.00;;;1.70;;
3309;SDS011;1667;53.238;10.394;2022-11-02T07:54:00;8.87;;;2.37;;
3309;SDS011;1667;53.238;10.394;2022-11-02T07:59:00;4.60;;;1.40;;
3309;SDS011;1667;53.238;10.394;2022-11-02T08:03:58;3.47;;;1.50;;
3309;SDS011;1667;53.238;10.394;2022-11-02T08:08:56;6.40;;;1.40;;
3309;SDS011;1667;53.238;10.394;2022-11-02T08:13:54;3.33;;;1.30;;
3309;SDS011;1667;53.238;10.394;2022-11-02T08:18:54;3.17;;;1.40;;
3309;SDS011;1667;53.238;10.394;2022-11-02T08:23:54;1.93;;;1.43;;
3309;SDS011;1667;53.238;10.394;2022-11-02T08:28:54;6.60;;;1.90;;
3309;SDS011;1667;53.238;10.394;2022-11-02T08:33:52;4.97;;;2.07;;
3309;SDS011;1667;53.238;10.394;2022-11-02T08:38:52;4.20;;;1.70;;
3309;SDS011;1667;53.238;10.394;2022-11-02T08:43:50;8.60;;;2.40;;
3309;SDS011;1667;53.238;10.394;2022-11-02T08:48:48;3.27;;;1.70;;
3309;SDS011;1667;53.238;10.394;2022-11-02T08:53:46;4.33;;;1.70;;
3309;SDS011;1667;53.238;10.394;2022-11-02T08:58:48;3.23;;;1.30;;
3309;SDS011;1667;53.238;10.394;2022-11-02T09:03:46;5.63;;;1.60;;
3309;SDS011;1667;53.238;10.394;2022-11-02T09:08:45;2.67;;;1.30;;
3309;SDS011;1667;53.238;10.394;2022-11-02T09:13:43;4.23;;;1.60;;
3309;SDS011;1667;53.238;10.394;2022-11-02T09:18:42;3.53;;;1.60;;
3309;SDS011;1667;53.238;10.394;2022-11-02T09:23:40;3.37;;;1.57;;
3309;SDS011;1667;53.238;10.394;2022-11-02T09:28:39;9.47;;;2.03;;
3309;SDS011;1667;53.238;10.394;2022-11-02T09:33:37;5.50;;;1.27;;
3309;SDS011;1667;53.238;10.394;2022-11-02T09:38:37;4.60;;;1.70;;
3309;SDS011;1667;53.238;10.394;2022-11-02T09:43:38;4.37;;;1.23;;
3309;SDS011;1667;53.238;10.394;2022-11-02T09:48:42;7.03;;;1.43;;
3309;SDS011;1667;53.238;10.394;2022-11-02T09:53:49;4.40;;;2.00;;
3309;SDS011;1667;53.238;10.394;2022-11-02T09:58:53;3.00;;;1.30;;
3309;SDS011;1667;53.238;10.394;2022-11-02T10:04:03;1.63;;;0.83;;
3309;SDS011;1667;53.238;10.394;2022-11-02T10:09:26;2.60;;;1.17;;
3309;SDS011;1667;53.238;10.394;2022-11-02T10:14:31;2.83;;;1.50;;
3309;SDS011;1667;53.238;10.394;2022-11-02T10:19:32;5.00;;;1.37;;
3309;SDS011;1667;53.238;10.394;2022-11-02T10:24:38;9.50;;;1.70;;
3309;SDS011;1667;53.238;10.394;2022-11-02T10:29:40;3.60;;;1.57;;
3309;SDS011;1667;53.238;10.394;2022-11-02T10:34:43;5.03;;;1.90;;
3309;SDS011;1667;53.238;10.394;2022-11-02T10:40:04;5.20;;;1.60;;
3309;SDS011;1667;53.238;10.394;2022-11-02T10:45:16;2.93;;;1.30;;
3309;SDS011;1667;53.238;10.394;2022-11-02T10:50:35;3.90;;;1.30;;
3309;SDS011;1667;53.238;10.394;2022-11-02T10:55:47;6.37;;;1.97;;
3309;SDS011;1667;53.238;10.394;2022-11-02T11:01:04;8.10;;;1.47;;
3309;SDS011;1667;53.238;10.394;2022-11-02T11:06:03;6.20;;;1.60;;
3309;SDS011;1667;53.238;10.394;2022-11-02T11:11:12;7.80;;;1.33;;
3309;SDS011;1667;53.238;10.394;2022-11-02T11:16:14;4.60;;;1.57;;
3309;SDS011;1667;53.238;10.394;2022-11-02T11:21:17;8.87;;;2.20;;
3309;SDS011;1667;53.238;10.394;2022-11-02T11:26:24;2.40;;;1.53;;
3309;SDS011;1667;53.238;10.394;2022-11-02T11:31:24;3.03;;;1.40;;
3309;SDS011;1667;53.238;10.394;2022-11-02T11:36:24;3.50;;;1.07;;
3309;SDS011;1667;53.238;10.394;2022-11-02T11:41:25;1.73;;;0.83;;
3309;SDS011;1667;53.238;10.394;2022-11-02T11:46:36;2.60;;;1.20;;
3309;SDS011;1667;53.238;10.394;2022-11-02T11:51:36;1.23;;;0.97;;
3309;SDS011;1667;53.238;10.394;2022-11-02T11:56:39;1.93;;;1.07;;
3309;SDS011;1667;53.238;10.394;2022-11-02T12:01:37;2.07;;;1.47;;
3309;SDS011;1667;53.238;10.394;2022-11-02T12:06:38;6.20;;;1.53;;
3309;SDS011;1667;53.238;10.394;2022-11-02T12:11:46;3.00;;;1.30;;
3309;SDS011;1667;53.238;10.394;2022-11-02T12:22:22;3.73;;;1.40;;
3309;SDS011;1667;53.238;10.394;2022-11-02T12:27:29;3.43;;;1.20;;
3309;SDS011;1667;53.238;10.394;2022-11-02T12:32:37;2.30;;;1.10;;
3309;SDS011;1667;53.238;10.394;2022-11-02T12:37:46;3.43;;;1.17;;
3309;SDS011;1667;53.238;10.394;2022-11-02T12:48:41;4.30;;;1.60;;
3309;SDS011;1667;53.238;10.394;2022-11-02T12:53:50;1.70;;;1.10;;
3309;SDS011;1667;53.238;10.394;2022-11-02T12:58:53;3.87;;;1.33;;
3309;SDS011;1667;53.238;10.394;2022-11-02T13:03:55;3.63;;;1.60;;
3309;SDS011;1667;53.238;10.394;2022-11-02T13:08:58;8.13;;;1.33;;
3309;SDS011;1667;53.238;10.394;2022-11-02T13:14:01;1.27;;;0.70;;
3309;SDS011;1667;53.238;10.394;2022-11-02T13:19:08;5.03;;;0.90;;
3309;SDS011;1667;53.238;10.394;2022-11-02T13:24:13;2.60;;;1.20;;
3309;SDS011;1667;53.238;10.394;2022-11-02T13:29:16;2.40;;;1.40;;
3309;SDS011;1667;53.238;10.394;2022-11-02T13:34:21;1.93;;;1.70;;
3309;SDS011;1667;53.238;10.394;2022-11-02T13:39:30;5.20;;;1.07;;
3309;SDS011;1667;53.238;10.394;2022-11-02T13:44:43;2.20;;;1.37;;
3309;SDS011;1667;53.238;10.394;2022-11-02T13:50:12;1.10;;;0.90;;
3309;SDS011;1667;53.238;10.394;2022-11-02T13:55:14;2.97;;;0.80;;
3309;SDS011;1667;53.238;10.394;2022-11-02T14:00:26;5.60;;;1.03;;
3309;SDS011;1667;53.238;10.394;2022-11-02T14:05:29;1.23;;;0.83;;
3309;SDS011;1667;53.238;10.394;2022-11-02T14:10:30;1.60;;;0.90;;
3309;SDS011;1667;53.238;10.394;2022-11-02T14:20:41;2.77;;;1.10;;
3309;SDS011;1667;53.238;10.394;2022-11-02T14:25:45;2.07;;;1.00;;
3309;SDS011;1667;53.238;10.394;2022-11-02T14:30:44;1.73;;;1.13;;
3309;SDS011;1667;53.238;10.394;2022-11-02T14:35:48;3.90;;;1.20;;
3309;SDS011;1667;53.238;10.394;2022-11-02T14:40:55;1.27;;;0.77;;
3309;SDS011;1667;53.238;10.394;2022-11-02T14:46:05;5.03;;;1.00;;
3309;SDS011;1667;53.238;10.394;2022-11-02T14:51:13;6.53;;;1.30;;
3309;SDS011;1667;53.238;10.394;2022-11-02T14:56:15;3.47;;;1.50;;
3309;SDS011;1667;53.238;10.394;2022-11-02T15:01:13;2.27;;;0.97;;
3309;SDS011;1667;53.238;10.394;2022-11-02T15:13:23;2.00;;;1.07;;
3309;SDS011;1667;53.238;10.394;2022-11-02T15:18:31;1.23;;;1.13;;
3309;SDS011;1667;53.238;10.394;2022-11-02T15:23:31;2.00;;;0.97;;
3309;SDS011;1667;53.238;10.394;2022-11-02T15:28:38;7.80;;;1.20;;
3309;SDS011;1667;53.238;10.394;2022-11-02T15:33:40;4.60;;;1.30;;
3309;SDS011;1667;53.238;10.394;2022-11-02T15:38:40;2.83;;;1.00;;
3309;SDS011;1667;53.238;10.394;2022-11-02T15:43:55;3.73;;;1.00;;
3309;SDS011;1667;53.238;10.394;2022-11-02T15:49:26;3.60;;;1.20;;
3309;SDS011;1667;53.238;10.394;2022-11-02T16:00:07;2.00;;;1.00;;
3309;SDS011;1667;53.238;10.394;2022-11-02T16:05:20;5.03;;;0.97;;
3309;SDS011;1667;53.238;10.394;2022-11-02T16:10:21;5.10;;;1.30;;
3309;SDS011;1667;53.238;10.394;2022-11-02T16:15:22;3.03;;;1.27;;
3309;SDS011;1667;53.238;10.394;2022-11-02T16:20:21;3.50;;;1.77;;
3309;SDS011;1667;53.238;10.394;2022-11-02T16:25:24;6.23;;;1.57;;
3309;SDS011;1667;53.238;10.394;2022-11-02T16:30:36;4.07;;;1.70;;
3309;SDS011;1667;53.238;10.394;2022-11-02T16:35:35;3.20;;;1.47;;
3309;SDS011;1667;53.238;10.394;2022-11-02T16:40:33;4.17;;;2.50;;
3309;SDS011;1667;53.238;10.394;2022-11-02T16:45:34;5.57;;;2.50;;
3309;SDS011;1667;53.238;10.394;2022-11-02T16:50:40;12.53;;;4.00;;
3309;SDS011;1667;53.238;10.394;2022-11-02T16:55:55;7.30;;;4.20;;
3309;SDS011;1667;53.238;10.394;2022-11-02T17:00:56;13.70;;;7.70;;
3309;SDS011;1667;53.238;10.394;2022-11-02T17:06:00;15.93;;;6.80;;
3309;SDS011;1667;53.238;10.394;2022-11-02T17:11:03;8.40;;;4.43;;
3309;SDS011;1667;53.238;10.394;2022-11-02T17:16:04;7.67;;;4.90;;
3309;SDS011;1667;53.238;10.394;2022-11-02T17:21:20;3.80;;;3.07;;
3309;SDS011;1667;53.238;10.394;2022-11-02T17:26:24;5.30;;;2.30;;
3309;SDS011;1667;53.238;10.394;2022-11-02T17:31:33;2.87;;;1.80;;
3309;SDS011;1667;53.238;10.394;2022-11-02T17:36:41;3.90;;;1.83;;
3309;SDS011;1667;53.238;10.394;2022-11-02T17:41:40;2.10;;;1.90;;
3309;SDS011;1667;53.238;10.394;2022-11-02T17:46:56;9.57;;;1.83;;
3309;SDS011;1667;53.238;10.394;2022-11-02T17:51:57;4.90;;;1.87;;
3309;SDS011;1667;53.238;10.394;2022-11-02T17:56:55;3.83;;;1.70;;
3309;SDS011;1667;53.238;10.394;2022-11-02T18:01:53;5.30;;;2.60;;
3309;SDS011;1667;53.238;10.394;2022-11-02T18:06:51;3.43;;;1.80;;
3309;SDS011;1667;53.238;10.394;2022-11-02T18:11:51;4.43;;;2.30;;
3309;SDS011;1667;53.238;10.394;2022-11-02T18:16:49;12.30;;;6.03;;
3309;SDS011;1667;53.238;10.394;2022-11-02T18:21:48;10.70;;;4.70;;
3309;SDS011;1667;53.238;10.394;2022-11-02T18:26:46;5.63;;;4.03;;
3309;SDS011;1667;53.238;10.394;2022-11-02T18:31:45;7.13;;;3.00;;
3309;SDS011;1667;53.238;10.394;2022-11-02T18:36:43;13.33;;;3.77;;
3309;SDS011;1667;53.238;10.394;2022-11-02T18:41:41;6.50;;;2.83;;
3309;SDS011;1667;53.238;10.394;2022-11-02T18:46:40;5.90;;;3.30;;
3309;SDS011;1667;53.238;10.394;2022-11-02T18:51:39;3.97;;;3.00;;
3309;SDS011;1667;53.238;10.394;2022-11-02T18:56:38;9.80;;;5.57;;
3309;SDS011;1667;53.238;10.394;2022-11-02T19:01:37;8.60;;;4.60;;
3309;SDS011;1667;53.238;10.394;2022-11-02T19:06:35;10.63;;;3.57;;
3309;SDS011;1667;53.238;10.394;2022-11-02T19:11:53;5.60;;;2.87;;
3309;SDS011;1667;53.238;10.394;2022-11-02T19:23:52;6.30;;;2.70;;
3309;SDS011;1667;53.238;10.394;2022-11-02T19:28:52;5.57;;;2.50;;
3309;SDS011;1667;53.238;10.394;2022-11-02T19:33:50;6.83;;;2.60;;
3309;SDS011;1667;53.238;10.394;2022-11-02T19:38:48;5.20;;;2.47;;
3309;SDS011;1667;53.238;10.394;2022-11-02T19:43:46;4.63;;;2.70;;
3309;SDS011;1667;53.238;10.394;2022-11-02T19:48:46;6.87;;;2.77;;
3309;SDS011;1667;53.238;10.394;2022-11-02T19:53:46;3.23;;;2.70;;
3309;SDS011;1667;53.238;10.394;2022-11-02T19:58:46;3.47;;;1.80;;
3309;SDS011;1667;53.238;10.394;2022-11-02T20:03:47;4.83;;;2.30;;
3309;SDS011;1667;53.238;10.394;2022-11-02T20:08:47;2.20;;;1.80;;
3309;SDS011;1667;53.238;10.394;2022-11-02T20:13:46;7.13;;;3.17;;
3309;SDS011;1667;53.238;10.394;2022-11-02T20:18:47;3.93;;;2.37;;
3309;SDS011;1667;53.238;10.394;2022-11-02T20:23:46;5.47;;;3.10;;
3309;SDS011;1667;53.238;10.394;2022-11-02T20:28:45;13.17;;;4.23;;
3309;SDS011;1667;53.238;10.394;2022-11-02T20:33:44;7.07;;;4.70;;
3309;SDS011;1667;53.238;10.394;2022-11-02T20:38:44;7.30;;;3.17;;
3309;SDS011;1667;53.238;10.394;2022-11-02T20:43:43;6.17;;;3.90;;
3309;SDS011;1667;53.238;10.394;2022-11-02T20:48:42;2.70;;;2.43;;
3309;SDS011;1667;53.238;10.394;2022-11-02T20:53:41;4.40;;;2.13;;
3309;SDS011;1667;53.238;10.394;2022-11-02T20:58:41;3.87;;;2.20;;
3309;SDS011;1667;53.238;10.394;2022-11-02T21:03:46;3.03;;;2.00;;
3309;SDS011;1667;53.238;10.394;2022-11-02T21:08:46;3.80;;;3.50;;
3309;SDS011;1667;53.238;10.394;2022-11-02T21:13:44;3.10;;;2.57;;
3309;SDS011;1667;53.238;10.394;2022-11-02T21:18:48;4.77;;;2.60;;
3309;SDS011;1667;53.238;10.394;2022-11-02T21:23:47;8.13;;;2.50;;
3309;SDS011;1667;53.238;10.394;2022-11-02T21:28:45;3.63;;;2.07;;
3309;SDS011;1667;53.238;10.394;2022-11-02T21:33:44;4.57;;;2.23;;
3309;SDS011;1667;53.238;10.394;2022-11-02T21:38:43;3.07;;;2.70;;
3309;SDS011;1667;53.238;10.394;2022-11-02T21:43:45;5.40;;;2.50;;
3309;SDS011;1667;53.238;10.394;2022-11-02T21:48:47;5.10;;;2.40;;
3309;SDS011;1667;53.238;10.394;2022-11-02T21:53:45;5.60;;;2.77;;
3309;SDS011;1667;53.238;10.394;2022-11-02T21:58:46;12.80;;;4.93;;
3309;SDS011;1667;53.238;10.394;2022-11-02T22:03:45;4.40;;;2.80;;
3309;SDS011;1667;53.238;10.394;2022-11-02T22:08:43;5.33;;;3.20;;
3309;SDS011;1667;53.238;10.394;2022-11-02T22:13:42;7.40;;;2.40;;
3309;SDS011;1667;53.238;10.394;2022-11-02T22:18:42;4.60;;;2.47;;
3309;SDS011;1667;53.238;10.394;2022-11-02T22:23:42;4.30;;;2.17;;
3309;SDS011;1667;53.238;10.394;2022-11-02T22:28:42;7.73;;;2.97;;
3309;SDS011;1667;53.238;10.394;2022-11-02T22:33:42;6.27;;;2.70;;
3309;SDS011;1667;53.238;10.394;2022-11-02T22:38:41;2.97;;;2.30;;
3309;SDS011;1667;53.238;10.394;2022-11-02T22:43:49;3.20;;;2.63;;
3309;SDS011;1667;53.238;10.394;2022-11-02T22:48:50;3.80;;;2.43;;
3309;SDS011;1667;53.238;10.394;2022-11-02T22:53:49;4.50;;;2.57;;
3309;SDS011;1667;53.238;10.394;2022-11-02T22:58:48;6.83;;;2.80;;
3309;SDS011;1667;53.238;10.394;2022-11-02T23:03:47;3.03;;;2.17;;
3309;SDS011;1667;53.238;10.394;2022-11-02T23:08:47;6.47;;;2.60;;
3309;SDS011;1667;53.238;10.394;2022-11-02T23:13:47;4.20;;;2.60;;
3309;SDS011;1667;53.238;10.394;2022-11-02T23:18:51;6.10;;;2.93;;
3309;SDS011;1667;53.238;10.394;2022-11-02T23:24:10;6.10;;;3.00;;
3309;SDS011;1667;53.238;10.394;2022-11-02T23:29:26;6.43;;;2.57;;
3309;SDS011;1667;53.238;10.394;2022-11-02T23:34:41;5.13;;;3.00;;
3309;SDS011;1667;53.238;10.394;2022-11-02T23:40:06;10.37;;;2.30;;
3309;SDS011;1667;53.238;10.394;2022-11-02T23:45:06;5.20;;;2.23;;
3309;SDS011;1667;53.238;10.394;2022-11-02T23:50:06;9.40;;;3.67;;
3309;SDS011;1667;53.238;10.394;2022-11-02T23:55:06;4.67;;;2.63;;
